Wisconsin Dells, WI

6:53 PM CST on February 05, 2016 (GMT -0600)
Parker Lake | | Change Station
CLOSE
Current Station
Personal Weather Station
Location: Oxford, WI
Elevation: 902 ft
Nearby Weather Stations

Elev 902 ft 43.77 °N, 89.63 °W | Updated 3 minutes ago

Partly Cloudy
Partly Cloudy
19.4 °F
Feels Like 19 °F
N
0.0
Wind Variable Wind from SSE

Today
High -- | Low -- °F
--% Chance of Precip.
Yesterday
High -- | Low -- °F
Precip. -- in
Pressure 30.28 in
Visibility 10.0 miles
Clouds Overcast 10000 ft
Windchill 19 °F
Dew Point 18 °F
Humidity 92%
Rainfall 0.00 in
Snow Depth Not available.
7:11 AM 5:14 PM
Waning Crescent, 8% visible
METAR KDLL 060035Z AUTO 21004KT 10SM OVC100 M04/M08 A3028 RMK AO2 T10381081
Pressure 30.28 in
Visibility 10.0 miles
Clouds Overcast 10000 ft
Windchill 19 °F
Dew Point 18 °F
Humidity 92%
Rainfall 0.00 in
Snow Depth Not available.
7:11 AM 5:14 PM
Waning Crescent, 8% visible
METAR KDLL 060035Z AUTO 21004KT 10SM OVC100 M04/M08 A3028 RMK AO2 T10381081

10-Day Weather Forecast

Almanac

Astronomy

Feb. 05, 2016 Rise Set
Actual Time
Civil Twilight
Nautical Twilight
Astronomical Twilight
Moon
Length of Visible Light
Length of Day
Tomorrow will be .
, % of the Moon is Illuminated

Today's Extremes

State Highs State Lows

Community

WunderPhotos

Upload Photos

1,890,900 photos uploaded!

WunderBlog® & News

Nearby

Air Quality

  Air Quality AQ Index Pollutant
Not available.

Snow Depth

Station Depth Elevation

Earthquake Activity

City Distance Mag. Time & Date
Minimum magnitude displayed is 2.5.

Coastal Water Temperatures

Place Temperature

Stations

Nearby Weather Stations

Station Location Temp. Windchill Dew Point Humidity Wind Precip. Elev Updated Type
                   

Watches & Warnings

There are currently no watches in effect.